Time;durP1;ratioP1;P1;durP2;ratioP2;P2;SDS_P1;SDS_P2;PMS_P1;PMS_P2;Temp;Humidity;BMP_temperature;BMP_pressure;BME280_temperature;BME280_humidity;BME280_pressure;Samples;Min_cycle;Max_cycle;Signal;HPM_P1;HPM_P2
2022/03/21 00:01:51;;;;;;;202.52;175.02;;;;;;;15.70;28.54;94878.34;5117236;27;20556;-61
2022/03/21 00:04:17;;;;;;;198.02;171.25;;;;;;;15.68;28.48;94870.66;5110198;27;20047;-61
2022/03/21 00:06:43;;;;;;;200.88;173.13;;;;;;;15.69;28.54;94871.41;5114321;27;20075;-61
2022/03/21 00:09:08;;;;;;;201.30;174.35;;;;;;;15.68;28.22;94875.28;5115076;27;20054;-61
2022/03/21 00:11:34;;;;;;;206.77;179.30;;;;;;;15.69;28.64;94877.56;5113088;27;20047;-60
2022/03/21 00:13:59;;;;;;;198.82;171.48;;;;;;;15.69;28.50;94887.59;5114486;27;20114;-61
2022/03/21 00:16:25;;;;;;;198.77;172.98;;;;;;;15.68;28.78;94880.69;5120549;27;20400;-61
2022/03/21 00:18:51;;;;;;;193.93;170.80;;;;;;;15.66;28.49;94881.09;5118203;27;20036;-61
2022/03/21 00:21:17;;;;;;;206.48;177.20;;;;;;;15.67;28.50;94879.16;5112865;27;20043;-62
2022/03/21 00:23:42;;;;;;;213.68;184.05;;;;;;;15.67;28.49;94881.84;5112082;27;20055;-61
2022/03/21 00:26:08;;;;;;;198.93;171.63;;;;;;;15.65;28.49;94876.88;5115270;27;20117;-62
2022/03/21 00:28:33;;;;;;;215.48;185.50;;;;;;;15.65;28.29;94884.97;5123366;27;20057;-60
2022/03/21 00:30:59;;;;;;;199.73;174.73;;;;;;;15.63;28.52;94879.25;5120735;27;20096;-61
2022/03/21 00:33:24;;;;;;;201.85;176.45;;;;;;;15.62;28.53;94887.75;5115076;27;20050;-61
2022/03/21 00:35:50;;;;;;;201.35;175.23;;;;;;;15.62;28.57;94879.66;5110591;27;20073;-61
2022/03/21 00:38:18;;;;;;;202.77;175.75;;;;;;;15.63;28.76;94883.88;5114589;27;20058;-60
2022/03/21 00:40:45;;;;;;;201.57;173.48;;;;;;;15.62;28.53;94888.50;5110875;27;20035;-61
2022/03/21 00:43:17;;;;;;;202.98;176.13;;;;;;;15.63;28.59;94887.31;5119512;27;20047;-61
2022/03/21 00:45:42;;;;;;;200.50;172.85;;;;;;;15.64;28.70;94886.16;5115584;27;20701;-61
2022/03/21 00:48:08;;;;;;;201.20;175.77;;;;;;;15.63;28.56;94890.03;5112875;27;20059;-61
2022/03/21 00:50:34;;;;;;;211.93;183.40;;;;;;;15.63;28.57;94887.31;5118645;27;20039;-62
2022/03/21 00:53:00;;;;;;;211.07;183.55;;;;;;;15.64;28.56;94891.53;5111507;27;20031;-61
2022/03/21 00:55:26;;;;;;;203.18;178.30;;;;;;;15.62;28.73;94885.81;5119715;27;20047;-61
2022/03/21 00:57:52;;;;;;;205.77;178.85;;;;;;;15.63;28.64;94875.78;5118135;27;20093;-61
2022/03/21 01:00:20;;;;;;;204.15;176.88;;;;;;;15.63;28.71;94878.47;5120948;27;20547;-60
2022/03/21 01:02:47;;;;;;;201.55;170.43;;;;;;;15.62;28.79;94877.72;5111163;27;20055;-61
2022/03/21 01:05:13;;;;;;;203.32;177.55;;;;;;;15.63;28.77;94887.31;5120282;27;20046;-62
2022/03/21 01:07:40;;;;;;;208.45;180.25;;;;;;;15.63;28.57;94884.63;5118106;27;20051;-61
2022/03/21 01:10:07;;;;;;;199.00;172.60;;;;;;;15.64;28.69;94877.31;5120622;27;20289;-61
2022/03/21 01:12:33;;;;;;;202.68;174.52;;;;;;;15.63;28.52;94881.19;5110908;27;20074;-62
2022/03/21 01:14:59;;;;;;;199.90;176.07;;;;;;;15.63;28.52;94886.56;5116473;27;20081;-61
2022/03/21 01:17:25;;;;;;;201.27;172.70;;;;;;;15.63;28.57;94884.63;5116305;27;20073;-62
2022/03/21 01:19:51;;;;;;;202.80;172.95;;;;;;;15.62;29.02;94891.19;5113752;27;20042;-61
2022/03/21 01:22:17;;;;;;;217.25;187.88;;;;;;;15.61;28.64;94886.97;5118496;27;20051;-62
2022/03/21 01:24:42;;;;;;;216.05;184.98;;;;;;;15.60;28.86;94892.81;5116555;27;20050;-61
2022/03/21 01:27:08;;;;;;;212.85;181.68;;;;;;;15.61;28.68;94892.38;5112078;27;20040;-60
2022/03/21 01:29:35;;;;;;;205.88;178.88;;;;;;;15.61;28.74;94886.22;5118845;27;20430;-60
2022/03/21 01:32:01;;;;;;;221.57;187.55;;;;;;;15.61;28.65;94886.97;5110048;27;20055;-61
2022/03/21 01:34:26;;;;;;;203.73;173.85;;;;;;;15.61;28.58;94883.53;5116225;27;20039;-61
2022/03/21 01:36:52;;;;;;;203.65;176.85;;;;;;;15.61;28.52;94875.44;5115385;27;20103;-61
2022/03/21 01:39:19;;;;;;;211.13;183.38;;;;;;;15.60;28.65;94880.06;5119007;27;22231;-61
2022/03/21 01:41:45;;;;;;;215.18;183.32;;;;;;;15.61;28.74;94886.22;5116110;27;20046;-60
2022/03/21 01:44:11;;;;;;;200.98;171.15;;;;;;;15.59;28.66;94883.22;5119691;27;20044;-60
2022/03/21 01:46:37;;;;;;;203.75;176.77;;;;;;;15.57;28.80;94880.94;5111639;27;20530;-60
2022/03/21 01:49:05;;;;;;;206.85;179.40;;;;;;;15.59;28.55;94880.50;5118881;27;20053;-61
2022/03/21 01:51:32;;;;;;;210.25;177.52;;;;;;;15.58;28.66;94877.06;5114547;27;20048;-60
2022/03/21 01:56:46;;;;;;;198.73;172.68;;;;;;;15.58;28.68;94877.06;5108290;27;20047;-61
2022/03/21 01:59:13;;;;;;;202.20;173.25;;;;;;;15.58;28.57;94882.44;5118033;27;20058;-61
2022/03/21 02:01:39;;;;;;;209.00;181.05;;;;;;;15.57;28.41;94883.63;5112343;27;20155;-61
2022/03/21 02:04:06;;;;;;;204.45;173.63;;;;;;;15.57;28.82;94883.63;5123146;27;20104;-60
2022/03/21 02:06:31;;;;;;;202.13;176.40;;;;;;;15.56;28.82;94884.00;5118135;27;20043;-61
2022/03/21 02:08:59;;;;;;;207.18;179.57;;;;;;;15.57;28.59;94890.94;5111215;27;20042;-62
2022/03/21 02:11:26;;;;;;;201.73;176.05;;;;;;;15.57;28.64;94891.72;5115206;27;20074;-61
2022/03/21 02:13:55;;;;;;;200.88;172.77;;;;;;;15.56;28.59;94894.78;5113925;27;20451;-61
2022/03/21 02:16:21;;;;;;;;;;;;;;;15.56;28.63;94892.09;5113635;27;20043;-61
2022/03/21 02:18:48;;;;;;;198.10;165.43;;;;;;;15.55;28.92;94898.66;5113065;27;20392;-60
2022/03/21 02:21:21;;;;;;;205.02;174.25;;;;;;;15.54;28.62;94889.81;5115614;27;20091;-61
2022/03/21 02:23:56;;;;;;;198.57;167.77;;;;;;;15.53;28.55;94885.59;5112509;27;20431;-60
2022/03/21 02:26:23;;;;;;;199.70;170.90;;;;;;;15.54;28.56;94886.38;5115323;27;20415;-61
2022/03/21 02:28:49;;;;;;;199.18;172.07;;;;;;;15.53;28.61;94891.00;5120358;27;20043;-61
2022/03/21 02:31:16;;;;;;;200.30;170.13;;;;;;;15.54;28.67;94889.06;5122825;27;20099;-61
2022/03/21 02:33:42;;;;;;;203.68;175.27;;;;;;;15.53;28.67;94880.22;5117656;27;20149;-61
2022/03/21 02:36:09;;;;;;;204.60;172.35;;;;;;;15.53;28.70;94882.91;5108012;27;20040;-61
2022/03/21 02:38:35;;;;;;;203.23;177.45;;;;;;;15.52;28.51;94883.31;5121324;27;20054;-61
2022/03/21 02:41:01;;;;;;;203.75;175.20;;;;;;;15.52;28.70;94878.69;5109427;27;20514;-61
2022/03/21 02:43:27;;;;;;;204.75;175.70;;;;;;;15.51;28.67;94885.25;5118893;27;20050;-62
2022/03/21 02:46:03;;;;;;;209.27;180.63;;;;;;;15.51;28.75;94885.25;5105546;27;20052;-61
2022/03/21 02:48:29;;;;;;;200.52;172.05;;;;;;;15.51;28.70;94895.28;5119053;27;20054;-60
2022/03/21 02:51:00;;;;;;;199.50;170.85;;;;;;;15.51;28.69;94887.19;5111171;27;20039;-62
2022/03/21 02:53:29;;;;;;;194.93;165.80;;;;;;;15.51;28.80;94890.66;5117813;27;20087;-61
2022/03/21 02:55:56;;;;;;;198.13;171.35;;;;;;;15.52;28.64;94894.88;5113141;27;20427;-60
2022/03/21 02:58:22;;;;;;;207.05;180.15;;;;;;;15.49;28.59;94888.38;5114610;27;20115;-61
2022/03/21 03:00:49;;;;;;;201.02;172.38;;;;;;;15.50;28.52;94899.91;5112017;27;20042;-62
2022/03/21 03:03:14;;;;;;;200.77;171.73;;;;;;;15.49;28.82;94898.41;5112449;27;20050;-61
2022/03/21 03:05:40;;;;;;;204.65;175.98;;;;;;;15.49;28.69;94893.00;5113021;27;20055;-61
2022/03/21 03:08:05;;;;;;;210.15;178.90;;;;;;;15.47;28.90;94909.59;5108671;27;20353;-61
2022/03/21 03:10:31;;;;;;;199.43;171.52;;;;;;;15.47;28.66;94900.75;5117014;27;20115;-61
2022/03/21 03:12:57;;;;;;;211.52;178.50;;;;;;;15.45;28.69;94905.78;5109192;27;20139;-62
2022/03/21 03:15:22;;;;;;;208.73;180.40;;;;;;;15.45;28.79;94908.47;5115866;27;20508;-61
2022/03/21 03:17:48;;;;;;;203.70;177.27;;;;;;;15.43;28.76;94906.19;5114593;27;20039;-61
2022/03/21 03:20:15;;;;;;;205.32;177.10;;;;;;;15.46;28.65;94913.47;5114295;27;20540;-61
2022/03/21 03:22:41;;;;;;;212.98;180.73;;;;;;;15.45;28.44;94905.78;5110247;27;20114;-61
2022/03/21 03:25:07;;;;;;;200.05;171.50;;;;;;;15.43;28.72;94906.19;5111386;27;20051;-60
2022/03/21 03:27:36;;;;;;;201.25;175.93;;;;;;;15.45;28.78;94903.09;5116681;27;20046;-61
2022/03/21 03:30:01;;;;;;;201.23;172.57;;;;;;;15.45;28.67;94898.47;5114085;27;20046;-61
2022/03/21 03:32:28;;;;;;;203.02;173.95;;;;;;;15.44;28.64;94902.34;5118705;27;20043;-61
2022/03/21 03:34:54;;;;;;;209.13;179.65;;;;;;;15.44;28.65;94902.34;5117080;27;20067;-61
2022/03/21 03:37:20;;;;;;;204.40;178.13;;;;;;;15.44;28.60;94898.88;5110393;27;20120;-61
2022/03/21 03:39:46;;;;;;;204.50;177.27;;;;;;;15.42;28.61;94901.97;5121597;27;20488;-61
2022/03/21 03:42:11;;;;;;;204.00;175.63;;;;;;;15.43;28.85;94902.75;5113408;27;20051;-61
2022/03/21 03:44:37;;;;;;;202.75;175.55;;;;;;;15.44;28.65;94902.34;5113149;27;20096;-61
2022/03/21 03:47:03;;;;;;;203.05;173.25;;;;;;;15.43;28.80;94903.50;5110772;27;20107;-61
2022/03/21 03:49:28;;;;;;;203.45;176.27;;;;;;;15.43;28.57;94910.84;5111487;27;20151;-61
2022/03/21 03:51:54;;;;;;;213.88;180.90;;;;;;;15.44;28.53;94913.13;5117139;27;20444;-61
2022/03/21 03:54:20;;;;;;;204.40;174.40;;;;;;;15.44;28.76;94902.34;5117391;27;20044;-61
2022/03/21 03:56:45;;;;;;;204.93;178.90;;;;;;;15.43;28.69;94905.44;5118384;27;20077;-60
2022/03/21 03:59:11;;;;;;;204.02;177.07;;;;;;;15.43;28.74;94902.75;5113890;27;20446;-61
2022/03/21 04:01:38;;;;;;;213.02;183.65;;;;;;;15.43;28.64;94900.06;5120907;27;20037;-62
2022/03/21 04:04:04;;;;;;;203.52;176.07;;;;;;;15.43;28.72;94906.19;5112809;27;20442;-60
2022/03/21 04:06:29;;;;;;;203.30;177.57;;;;;;;15.43;28.63;94900.06;5116680;27;20047;-61
2022/03/21 04:08:55;;;;;;;204.32;177.05;;;;;;;15.43;28.67;94903.50;5124799;27;20051;-62
2022/03/21 04:11:21;;;;;;;210.45;178.13;;;;;;;15.43;28.69;94908.13;5115862;27;20153;-61
2022/03/21 04:13:47;;;;;;;208.73;182.82;;;;;;;15.41;28.70;94908.56;5116453;27;20050;-61
2022/03/21 04:16:14;;;;;;;199.65;171.82;;;;;;;15.41;28.58;94910.47;5118339;27;20100;-61
2022/03/21 04:18:40;;;;;;;205.43;179.25;;;;;;;15.39;28.88;94916.28;5115798;27;20154;-61
2022/03/21 04:21:05;;;;;;;203.20;175.60;;;;;;;15.41;28.65;94916.63;5116537;27;20675;-60
2022/03/21 04:23:31;;;;;;;205.50;175.75;;;;;;;15.40;28.75;94917.81;5122942;27;20039;-61
2022/03/21 04:25:58;;;;;;;207.25;179.00;;;;;;;15.41;28.64;94919.34;5118911;27;20388;-61
2022/03/21 04:28:23;;;;;;;207.13;180.05;;;;;;;15.41;28.84;94923.97;5122726;27;20546;-61
2022/03/21 04:30:49;;;;;;;217.82;188.57;;;;;;;15.41;28.54;94918.56;5109100;27;20149;-61
2022/03/21 04:33:15;;;;;;;203.35;177.73;;;;;;;15.40;28.75;94917.81;5123718;27;20035;-61
2022/03/21 04:35:42;;;;;;;206.20;179.23;;;;;;;15.40;28.73;94925.13;5112683;27;20051;-61
2022/03/21 04:38:15;;;;;;;205.38;179.57;;;;;;;15.40;28.68;94930.53;5112892;27;20043;-61
2022/03/21 04:40:45;;;;;;;209.27;184.10;;;;;;;15.38;28.75;94928.25;5118778;27;20087;-61
2022/03/21 04:43:13;;;;;;;211.23;178.27;;;;;;;15.38;28.81;94930.94;5117737;27;20075;-61
2022/03/21 04:45:40;;;;;;;209.85;178.60;;;;;;;15.38;28.63;94933.63;5114327;27;20437;-61
2022/03/21 04:48:06;;;;;;;215.48;187.25;;;;;;;15.38;28.75;94936.34;5122919;27;20115;-61
2022/03/21 04:50:33;;;;;;;211.57;182.38;;;;;;;15.38;28.60;94932.88;5117338;27;20099;-62
2022/03/21 04:52:58;;;;;;;209.70;183.00;;;;;;;15.37;28.83;94942.91;5119995;27;20828;-62
2022/03/21 04:55:24;;;;;;;214.05;186.75;;;;;;;15.37;28.85;94940.19;5114700;27;20050;-61
2022/03/21 04:57:49;;;;;;;215.98;184.50;;;;;;;15.37;28.66;94947.53;5110938;27;20517;-61
2022/03/21 05:00:15;;;;;;;211.65;185.18;;;;;;;15.37;28.80;94944.84;5118139;27;20035;-61
2022/03/21 05:02:41;;;;;;;213.02;185.20;;;;;;;15.36;28.73;94946.00;5115937;27;20043;-61
2022/03/21 05:05:08;;;;;;;214.75;184.38;;;;;;;15.37;28.92;94942.91;5116034;27;20070;-62
2022/03/21 05:07:53;;;;;;;218.80;190.13;;;;;;;15.38;28.68;94954.44;5122006;27;20419;-62
2022/03/21 05:10:23;;;;;;;225.57;191.82;;;;;;;15.38;28.82;94954.44;5117315;27;20122;-61
2022/03/21 05:12:50;;;;;;;213.02;184.18;;;;;;;15.38;28.56;94960.59;5117776;27;20066;-60
2022/03/21 05:15:16;;;;;;;214.90;187.00;;;;;;;15.38;28.65;94962.53;5116213;27;20039;-62
2022/03/21 05:17:43;;;;;;;217.48;189.02;;;;;;;15.37;28.76;94969.84;5126373;27;20118;-61
2022/03/21 05:20:15;;;;;;;215.63;186.55;;;;;;;15.39;28.73;94966.75;5119652;27;20059;-62
2022/03/21 05:30:57;;;;;;;212.80;186.15;;;;;;;15.37;28.67;94967.16;5117877;27;20051;-62
2022/03/21 05:31:06;;;;;;;217.10;186.98;;;;;;;15.40;28.73;94957.47;5129349;27;20039;-61
2022/03/21 05:36:17;;;;;;;230.73;194.80;;;;;;;15.41;28.58;94967.09;5120657;27;20562;-62
2022/03/21 05:38:44;;;;;;;208.48;178.40;;;;;;;15.41;28.72;94970.53;5122596;27;20570;-62
2022/03/21 05:41:10;;;;;;;215.70;187.23;;;;;;;15.38;28.61;94971.38;5117300;27;20099;-62
2022/03/21 05:43:36;;;;;;;222.35;191.85;;;;;;;15.08;29.20;94971.50;5111701;27;20038;-61
2022/03/21 05:46:03;;;;;;;211.43;182.50;;;;;;;15.24;28.77;94970.84;5119486;27;20557;-61
2022/03/21 05:51:16;;;;;;;216.38;186.07;;;;;;;15.37;28.59;94974.47;5120181;27;20130;-61
2022/03/21 05:53:42;;;;;;;215.60;185.48;;;;;;;15.40;28.31;94976.34;5123024;27;20063;-62
2022/03/21 05:56:08;;;;;;;212.52;182.02;;;;;;;15.42;28.47;94987.47;5116628;27;20657;-62
2022/03/21 05:58:34;;;;;;;209.10;182.20;;;;;;;15.44;28.53;94979.75;5125931;27;20118;-61
2022/03/21 06:00:59;;;;;;;214.52;184.77;;;;;;;15.43;28.70;94976.28;5125164;27;20109;-61
2022/03/21 06:03:25;;;;;;;212.15;184.70;;;;;;;15.46;28.52;94982.78;5115276;27;20051;-62
2022/03/21 06:05:51;;;;;;;206.13;180.55;;;;;;;15.47;28.48;94984.31;5122276;27;20050;-61
2022/03/21 06:08:20;;;;;;;215.77;189.05;;;;;;;15.48;28.64;94986.59;5119078;27;20058;-62
2022/03/21 06:10:46;;;;;;;214.05;187.80;;;;;;;15.46;28.44;94983.53;5108320;28;20122;-61
2022/03/21 06:13:12;;;;;;;212.30;183.10;;;;;;;15.50;28.25;94988.88;5113627;27;20126;-62
2022/03/21 06:15:39;;;;;;;209.38;183.63;;;;;;;15.50;28.62;94994.25;5118595;27;20416;-62
2022/03/21 06:18:12;;;;;;;211.90;183.00;;;;;;;15.49;28.51;94990.03;5128360;27;20509;-62
2022/03/21 06:20:39;;;;;;;214.50;188.98;;;;;;;15.52;28.54;95000.00;5116680;27;20050;-61
2022/03/21 06:23:05;;;;;;;212.43;186.65;;;;;;;15.50;28.51;94996.97;5124959;27;20039;-60
2022/03/21 06:25:31;;;;;;;215.25;187.75;;;;;;;15.51;28.71;94993.09;5110423;27;20356;-62
2022/03/21 06:27:57;;;;;;;213.02;186.43;;;;;;;15.53;28.55;95011.56;5107331;28;20043;-62
2022/03/21 06:30:23;;;;;;;216.02;183.00;;;;;;;15.51;28.61;95003.13;5112785;27;20401;-62
2022/03/21 06:32:49;;;;;;;209.48;181.98;;;;;;;15.49;28.62;94998.91;5127014;27;20038;-62
2022/03/21 06:35:14;;;;;;;210.23;182.10;;;;;;;15.52;28.56;95010.03;5119859;27;20039;-62
2022/03/21 06:37:41;;;;;;;234.48;199.68;;;;;;;15.49;28.71;95008.91;5119976;27;20804;-61
2022/03/21 06:40:09;;;;;;;217.88;185.35;;;;;;;15.52;28.68;95010.78;5115666;27;20058;-61
2022/03/21 06:42:34;;;;;;;209.20;183.80;;;;;;;15.53;28.70;95011.56;5118404;27;20109;-62
2022/03/21 06:45:02;;;;;;;218.48;190.27;;;;;;;15.52;28.61;95008.09;5110983;27;20047;-62
2022/03/21 06:47:28;;;;;;;211.30;182.43;;;;;;;15.53;28.60;95012.31;5111727;27;20111;-61
2022/03/21 06:49:53;;;;;;;211.90;182.77;;;;;;;15.56;28.75;95016.13;5112768;27;20048;-61
2022/03/21 06:52:19;;;;;;;209.52;177.68;;;;;;;15.56;28.52;95010.72;5116301;27;20044;-61
2022/03/21 06:54:46;;;;;;;203.10;176.30;;;;;;;15.57;28.66;95009.56;5111961;27;20328;-61
2022/03/21 06:57:12;;;;;;;212.40;186.27;;;;;;;15.58;28.66;95009.16;5118026;27;20046;-62
2022/03/21 06:59:37;;;;;;;212.70;186.00;;;;;;;15.60;28.77;95012.19;5126202;27;20051;-62
2022/03/21 07:02:04;;;;;;;220.13;187.77;;;;;;;15.61;28.48;95007.56;5125158;27;20035;-63
2022/03/21 07:04:29;;;;;;;213.82;183.57;;;;;;;15.62;28.73;95017.94;5116911;27;20177;-61
2022/03/21 07:06:57;;;;;;;208.77;183.45;;;;;;;15.63;28.73;95007.91;5117965;27;20048;-62
2022/03/21 07:09:24;;;;;;;205.85;181.15;;;;;;;15.61;28.73;95013.72;5124916;27;20051;-62
2022/03/21 07:11:49;;;;;;;222.52;194.27;;;;;;;15.63;28.88;95010.59;5107528;27;20043;-61
2022/03/21 07:14:15;;;;;;;203.85;171.07;;;;;;;15.63;28.86;95022.16;5127695;27;20054;-60
2022/03/21 07:16:41;;;;;;;206.70;179.77;;;;;;;15.63;28.88;95011.34;5121394;27;20056;-60
2022/03/21 07:19:06;;;;;;;207.05;181.30;;;;;;;15.64;28.88;95020.97;5123547;27;20039;-61
2022/03/21 07:21:32;;;;;;;223.38;192.85;;;;;;;15.65;28.91;95024.44;5114767;27;20039;-61
2022/03/21 07:23:57;;;;;;;211.80;187.43;;;;;;;15.66;28.89;95012.47;5126744;27;20036;-61
2022/03/21 07:26:23;;;;;;;209.27;183.30;;;;;;;15.65;28.97;95019.78;5108683;27;20055;-61
2022/03/21 07:28:49;;;;;;;225.98;192.57;;;;;;;15.67;28.91;95024.78;5107528;27;20052;-61
2022/03/21 07:31:14;;;;;;;213.05;181.77;;;;;;;15.66;29.01;95024.00;5112366;27;20040;-63
2022/03/21 07:33:41;;;;;;;223.95;192.48;;;;;;;15.67;29.01;95036.31;5117038;27;20118;-62
2022/03/21 07:36:08;;;;;;;228.52;197.25;;;;;;;15.68;29.26;95037.09;5121488;27;20054;-62
2022/03/21 07:38:35;;;;;;;209.98;185.73;;;;;;;15.66;28.90;95036.75;5116160;27;20129;-63
2022/03/21 07:41:02;;;;;;;210.23;185.27;;;;;;;15.62;28.93;95030.66;5116943;27;20043;-62
2022/03/21 07:43:28;;;;;;;216.93;185.38;;;;;;;15.62;29.09;95044.88;5117312;27;20055;-63
2022/03/21 07:48:37;;;;;;;209.93;181.00;;;;;;;15.61;29.16;95046.06;5122462;27;20039;-63
2022/03/21 07:51:04;;;;;;;211.25;185.30;;;;;;;15.62;29.22;95044.13;5124612;27;20052;-62
2022/03/21 07:53:31;;;;;;;213.15;186.80;;;;;;;15.62;29.09;95044.13;5118452;27;20295;-63
2022/03/21 07:56:00;;;;;;;211.45;182.38;;;;;;;15.64;29.09;95039.84;5115595;27;20089;-62
2022/03/21 07:58:26;;;;;;;206.75;177.40;;;;;;;15.64;29.13;95052.56;5117226;27;20065;-62
2022/03/21 08:00:52;;;;;;;208.75;180.23;;;;;;;15.62;29.15;95047.59;5117089;27;20044;-62
2022/03/21 08:03:17;;;;;;;215.80;184.60;;;;;;;15.65;29.15;95051.41;5116137;27;20521;-62
2022/03/21 08:05:43;;;;;;;208.43;179.02;;;;;;;15.64;29.23;95049.88;5127992;27;20051;-62
2022/03/21 08:08:09;;;;;;;212.43;184.00;;;;;;;15.66;28.98;95052.91;5118819;27;20172;-61
2022/03/21 08:10:35;;;;;;;213.70;183.98;;;;;;;15.66;29.15;95047.53;5122945;27;20047;-63
2022/03/21 08:13:01;;;;;;;208.25;179.77;;;;;;;15.67;29.17;95052.50;5123189;27;20054;-63
2022/03/21 08:15:27;;;;;;;212.77;184.32;;;;;;;15.67;29.13;95052.50;5126839;27;20039;-63
2022/03/21 08:17:57;;;;;;;212.75;186.57;;;;;;;15.67;29.34;95049.81;5124245;27;20049;-63
2022/03/21 08:20:24;;;;;;;207.23;178.45;;;;;;;15.67;29.23;95055.19;5119665;27;20418;-62
2022/03/21 08:22:52;;;;;;;212.13;182.00;;;;;;;15.67;29.15;95063.28;5120162;27;20043;-63
2022/03/21 08:25:20;;;;;;;206.75;179.75;;;;;;;15.66;29.04;95064.47;5129735;27;20039;-61
2022/03/21 08:27:46;;;;;;;210.30;182.73;;;;;;;15.67;29.17;95059.84;5113185;27;20441;-62
2022/03/21 08:30:15;;;;;;;215.70;183.73;;;;;;;15.68;29.20;95059.41;5118945;27;20113;-63
2022/03/21 08:32:43;;;;;;;204.15;173.88;;;;;;;15.70;29.21;95061.69;5119054;27;20043;-63
2022/03/21 08:35:09;;;;;;;212.88;184.38;;;;;;;15.69;29.11;95068.28;5126755;27;20043;-62
2022/03/21 08:37:35;;;;;;;205.10;173.93;;;;;;;15.67;29.11;95065.22;5114353;27;20395;-63
2022/03/21 08:40:01;;;;;;;203.40;174.77;;;;;;;15.67;29.14;95063.28;5120998;27;20045;-63
2022/03/21 08:42:29;;;;;;;204.35;171.73;;;;;;;15.63;29.13;95061.81;5128683;27;20050;-63
2022/03/21 08:44:55;;;;;;;208.82;181.10;;;;;;;15.62;29.05;95071.09;5120728;27;20554;-63
2022/03/21 08:47:21;;;;;;;210.98;181.07;;;;;;;15.61;29.14;95059.53;5128330;27;20103;-63
2022/03/21 08:49:46;;;;;;;205.60;174.35;;;;;;;15.59;29.08;95066.56;5118426;27;20099;-62
2022/03/21 08:52:13;;;;;;;213.73;185.52;;;;;;;15.59;29.20;95064.63;5118517;27;20051;-62
2022/03/21 08:54:39;;;;;;;207.52;179.65;;;;;;;15.62;29.17;95063.00;5115800;27;20047;-62
2022/03/21 08:57:05;;;;;;;204.98;174.40;;;;;;;15.61;28.96;95061.47;5112662;27;20080;-62
2022/03/21 08:59:31;;;;;;;208.65;179.68;;;;;;;15.61;29.05;95064.94;5110956;27;20100;-62
2022/03/21 09:01:57;;;;;;;229.95;195.77;;;;;;;15.60;29.20;95068.06;5109609;27;20445;-63
2022/03/21 09:04:22;;;;;;;218.05;184.35;;;;;;;15.62;29.11;95063.00;5105088;27;20109;-62
2022/03/21 09:06:48;;;;;;;207.20;178.10;;;;;;;15.64;29.25;95068.75;5116342;27;20384;-62
2022/03/21 09:09:15;;;;;;;207.73;179.93;;;;;;;15.64;29.05;95057.97;5115279;27;20051;-62
2022/03/21 09:11:41;;;;;;;213.80;182.43;;;;;;;15.61;29.10;95054.16;5118768;27;20047;-61
2022/03/21 09:14:08;;;;;;;205.30;172.70;;;;;;;15.64;28.97;95049.88;5119613;27;20035;-61
2022/03/21 09:16:34;;;;;;;199.50;172.93;;;;;;;15.65;29.09;95048.69;5116187;27;20172;-63
2022/03/21 09:19:00;;;;;;;202.23;171.80;;;;;;;15.61;28.98;95048.00;5119219;27;20054;-61
2022/03/21 09:21:27;;;;;;;206.50;177.10;;;;;;;15.55;28.96;95045.00;5113259;27;20043;-63
2022/03/21 09:23:52;;;;;;;207.73;177.48;;;;;;;15.54;29.03;95048.13;5128308;27;20039;-63
2022/03/21 09:26:19;;;;;;;207.73;174.23;;;;;;;15.51;28.88;95054.34;5124019;27;20035;-63
2022/03/21 09:28:45;;;;;;;204.00;174.48;;;;;;;15.55;29.01;95047.72;5129174;27;20462;-64
2022/03/21 09:31:13;;;;;;;208.07;178.40;;;;;;;15.58;28.88;95051.53;5125747;27;20104;-63
2022/03/21 09:33:39;;;;;;;207.30;177.63;;;;;;;15.59;28.87;95045.75;5119081;27;20058;-63
2022/03/21 09:36:05;;;;;;;203.68;171.98;;;;;;;15.62;28.50;95046.81;5117210;27;20398;-63
2022/03/21 09:38:31;;;;;;;206.20;175.95;;;;;;;15.61;28.63;95045.31;5111170;27;20080;-63
2022/03/21 09:40:58;;;;;;;207.43;179.73;;;;;;;15.62;28.53;95050.28;5115266;27;20100;-62
2022/03/21 09:43:24;;;;;;;209.52;179.07;;;;;;;15.66;28.58;95050.97;5113086;27;20055;-63
2022/03/21 09:45:51;;;;;;;218.10;184.02;;;;;;;15.58;28.77;95057.69;5112318;27;20118;-62
2022/03/21 09:48:19;;;;;;;215.63;183.43;;;;;;;15.56;29.02;95045.78;5111093;27;20059;-62
2022/03/21 09:50:46;;;;;;;208.82;183.55;;;;;;;15.55;28.59;95050.41;5107778;27;20517;-62
2022/03/21 09:53:14;;;;;;;209.68;181.45;;;;;;;15.54;28.58;95048.88;5123757;27;20119;-61
2022/03/21 09:55:41;;;;;;;215.38;182.20;;;;;;;15.57;28.62;95045.41;5119165;27;20051;-61
2022/03/21 09:58:10;;;;;;;208.88;178.50;;;;;;;15.61;28.61;95054.16;5117331;27;20465;-62
2022/03/21 10:00:42;;;;;;;208.45;181.27;;;;;;;15.61;28.60;95050.69;5110238;27;20043;-61
2022/03/21 10:03:08;;;;;;;206.13;177.05;;;;;;;15.62;28.38;95046.81;5120333;27;20043;-61
2022/03/21 10:05:41;;;;;;;211.32;185.50;;;;;;;15.66;28.64;95048.28;5118592;27;20063;-61
2022/03/21 10:08:25;;;;;;;209.30;174.85;;;;;;;15.64;28.56;95033.69;5120350;27;20035;-62
2022/03/21 10:11:05;;;;;;;220.65;187.23;;;;;;;15.63;28.63;95041.03;5111968;27;20181;-61
2022/03/21 10:13:32;;;;;;;207.02;176.77;;;;;;;15.58;28.28;95049.59;5105652;27;20035;-62
2022/03/21 10:16:15;;;;;;;203.93;176.93;;;;;;;15.55;28.49;95039.63;5115100;27;20055;-62
2022/03/21 10:18:53;;;;;;;213.52;182.55;;;;;;;15.57;28.39;95037.31;5103643;27;20050;-61
2022/03/21 10:21:23;;;;;;;205.23;174.52;;;;;;;15.60;28.25;95038.41;5114716;27;20036;-62
2022/03/21 10:24:07;;;;;;;220.60;190.13;;;;;;;15.63;28.27;95032.94;5107187;27;20088;-61
2022/03/21 10:26:40;;;;;;;203.23;171.95;;;;;;;15.59;28.14;95037.66;5113520;27;20039;-61
2022/03/21 10:29:10;;;;;;;257.52;211.75;;;;;;;15.63;28.19;95030.22;5105785;27;20115;-62
2022/03/21 10:31:38;;;;;;;215.23;183.93;;;;;;;15.63;28.21;95032.94;5118677;27;20055;-61
2022/03/21 10:34:09;;;;;;;204.20;176.65;;;;;;;15.59;28.05;95037.66;5107118;28;20047;-62
2022/03/21 10:36:36;;;;;;;208.65;180.27;;;;;;;15.58;28.13;95038.06;5126185;27;20035;-62
2022/03/21 10:39:12;;;;;;;207.38;179.38;;;;;;;15.62;28.18;95039.50;5119292;27;20557;-62
2022/03/21 10:41:39;;;;;;;210.02;181.65;;;;;;;15.63;28.20;95032.94;5115081;27;20039;-62
2022/03/21 10:44:07;;;;;;;208.68;176.23;;;;;;;15.65;28.45;95027.88;5118677;27;20071;-61
2022/03/21 10:46:34;;;;;;;214.13;180.30;;;;;;;15.64;28.43;95028.31;5106471;27;20043;-62
2022/03/21 10:49:09;;;;;;;201.32;169.25;;;;;;;15.62;28.46;95022.56;5122495;27;20519;-61
2022/03/21 10:51:54;;;;;;;216.50;177.63;;;;;;;15.61;28.24;95018.34;5125425;27;20051;-61
2022/03/21 10:54:39;;;;;;;221.93;187.10;;;;;;;15.61;28.27;95018.34;5119294;27;20107;-61
2022/03/21 10:57:07;;;;;;;199.30;170.68;;;;;;;15.63;28.24;95016.00;5123526;27;20054;-61
2022/03/21 10:59:33;;;;;;;206.77;179.57;;;;;;;15.65;28.23;95016.34;5119213;27;20600;-62
2022/03/21 11:02:17;;;;;;;211.98;179.20;;;;;;;15.61;28.10;95016.41;5113490;27;20097;-60
2022/03/21 11:04:44;;;;;;;201.88;170.68;;;;;;;15.53;28.08;95012.31;5118878;27;20336;-62
2022/03/21 11:07:11;;;;;;;199.48;172.50;;;;;;;15.49;28.05;95017.00;5110756;27;20062;-62
2022/03/21 11:09:41;;;;;;;205.75;173.70;;;;;;;15.56;28.08;95021.50;5113539;27;20143;-61
2022/03/21 11:12:09;;;;;;;219.35;187.05;;;;;;;15.59;28.13;95009.94;5112067;27;20046;-62
2022/03/21 11:14:41;;;;;;;201.70;170.75;;;;;;;15.59;27.81;95008.00;5125492;27;20055;-62
2022/03/21 11:17:07;;;;;;;205.57;177.45;;;;;;;15.60;27.89;95003.38;5114791;27;20556;-62
2022/03/21 11:19:34;;;;;;;206.55;177.23;;;;;;;15.62;27.94;95000.97;5112493;27;20032;-62